Time,TemperatureF,DewpointF,PressureIn,WindDirection,WindDirectionDegrees,WindSpeedMPH,WindSpeedGustMPH,Humidity,HourlyPrecipIn,Conditions,Clouds,dailyrainin,SoftwareType,DateUTC
2013-02-22 00:00:00,55.6,55.3,29.78,North,0,2.3,0.0,99,0.00,RA,,0.00,WeatherDisplay:10.37,2013-02-22 06:00:00,
2013-02-22 00:05:00,55.6,55.3,29.78,North,0,2.3,0.0,99,0.00,RA,,0.00,WeatherDisplay:10.37,2013-02-22 06:05:00,
2013-02-22 00:10:00,55.2,54.9,29.78,NE,45,2.3,2.3,99,0.00,CLR,,0.00,WeatherDisplay:10.37,2013-02-22 06:10:00,
2013-02-22 00:15:00,55.0,54.8,29.78,North,0,1.1,0.0,99,0.00,CLR,,0.00,WeatherDisplay:10.37,2013-02-22 06:15:00,
2013-02-22 00:20:00,55.0,54.8,29.78,North,0,3.5,0.0,99,0.00,CLR,,0.00,WeatherDisplay:10.37,2013-02-22 06:20:00,
2013-02-22 00:25:00,54.9,54.6,29.79,NE,45,1.1,1.1,99,0.00,CLR,,0.00,WeatherDisplay:10.37,2013-02-22 06:25:00,
2013-02-22 00:30:00,54.7,54.4,29.79,NE,45,2.3,2.3,99,0.00,CLR,,0.00,WeatherDisplay:10.37,2013-02-22 06:30:00,
2013-02-22 00:35:00,54.7,54.4,29.78,NE,45,3.5,3.5,99,0.00,CLR,,0.00,WeatherDisplay:10.37,2013-02-22 06:35:00,
2013-02-22 00:40:00,54.7,54.4,29.79,North,0,2.3,2.3,99,0.00,CLR,,0.00,WeatherDisplay:10.37,2013-02-22 06:40:00,
2013-02-22 00:45:00,54.5,54.2,29.79,North,0,1.1,1.1,99,0.00,CLR,,0.00,WeatherDisplay:10.37,2013-02-22 06:45:00,
2013-02-22 00:51:00,54.3,54.0,29.80,NE,45,3.5,0.0,99,0.00,CLR,,0.00,WeatherDisplay:10.37,2013-02-22 06:51:00,
2013-02-22 00:56:00,54.1,53.9,29.80,North,0,2.3,0.0,99,0.00,CLR,,0.00,WeatherDisplay:10.37,2013-02-22 06:56:00,
2013-02-22 01:01:00,54.0,53.7,29.80,NE,45,1.1,0.0,99,0.00,CLR,,0.00,WeatherDisplay:10.37,2013-02-22 07:01:00,
2013-02-22 01:06:00,54.0,53.7,29.81,NE,45,1.1,0.0,99,0.00,CLR,,0.00,WeatherDisplay:10.37,2013-02-22 07:06:00,
2013-02-22 01:11:00,53.8,53.5,29.81,NW,315,0.0,0.0,99,0.00,CLR,,0.00,WeatherDisplay:10.37,2013-02-22 07:11:00,
2013-02-22 01:16:00,53.6,53.3,29.81,NNE,22,1.1,0.0,99,0.00,CLR,,0.00,WeatherDisplay:10.37,2013-02-22 07:16:00,
2013-02-22 01:21:00,53.8,53.5,29.81,NW,315,1.1,0.0,99,0.00,CLR,,0.00,WeatherDisplay:10.37,2013-02-22 07:21:00,
2013-02-22 01:26:00,53.8,53.5,29.81,NW,315,1.1,0.0,99,0.00,CLR,,0.00,WeatherDisplay:10.37,2013-02-22 07:26:00,
2013-02-22 01:31:00,53.6,53.3,29.81,NW,315,0.0,0.0,99,0.00,CLR,,0.00,WeatherDisplay:10.37,2013-02-22 07:31:00,
2013-02-22 01:36:00,53.4,53.1,29.81,NW,315,0.0,0.0,99,0.00,CLR,,0.00,WeatherDisplay:10.37,2013-02-22 07:36:00,
2013-02-22 01:41:00,53.4,53.1,29.81,NW,315,0.0,0.0,99,0.00,CLR,,0.00,WeatherDisplay:10.37,2013-02-22 07:41:00,
2013-02-22 01:46:00,53.2,53.0,29.81,North,0,1.1,0.0,99,0.00,CLR,,0.00,WeatherDisplay:10.37,2013-02-22 07:46:00,
2013-02-22 01:51:00,53.2,53.0,29.81,NW,315,1.1,0.0,99,0.00,CLR,,0.00,WeatherDisplay:10.37,2013-02-22 07:51:00,
2013-02-22 01:56:00,53.2,53.0,29.81,NE,45,0.0,0.0,99,0.00,CLR,,0.00,WeatherDisplay:10.37,2013-02-22 07:56:00,
2013-02-22 02:01:00,53.1,52.8,29.81,North,0,1.1,0.0,99,0.00,CLR,,0.00,WeatherDisplay:10.37,2013-02-22 08:01:00,
2013-02-22 02:06:00,53.1,52.8,29.80,North,0,1.1,0.0,99,0.00,CLR,,0.00,WeatherDisplay:10.37,2013-02-22 08:06:00,
2013-02-22 02:11:00,52.9,52.6,29.81,North,0,1.1,0.0,99,0.00,CLR,,0.00,WeatherDisplay:10.37,2013-02-22 08:11:00,
2013-02-22 02:16:00,52.9,52.6,29.80,North,0,3.5,3.5,99,0.00,CLR,,0.00,WeatherDisplay:10.37,2013-02-22 08:16:00,
2013-02-22 02:21:00,52.9,52.6,29.80,North,0,2.3,2.3,99,0.00,CLR,,0.00,WeatherDisplay:10.37,2013-02-22 08:21:00,
2013-02-22 02:26:00,52.9,52.6,29.79,North,0,3.5,3.5,99,0.00,CLR,,0.00,WeatherDisplay:10.37,2013-02-22 08:26:00,
2013-02-22 02:31:00,52.9,52.6,29.79,WSW,248,3.5,3.5,99,0.00,CLR,,0.00,WeatherDisplay:10.37,2013-02-22 08:31:00,
2013-02-22 02:36:00,52.9,52.6,29.79,NW,315,3.5,3.5,99,0.00,CLR,,0.00,WeatherDisplay:10.37,2013-02-22 08:36:00,
2013-02-22 02:41:00,52.7,52.4,29.78,WSW,248,3.5,3.5,99,0.00,CLR,,0.00,WeatherDisplay:10.37,2013-02-22 08:41:00,
2013-02-22 02:46:00,52.7,52.4,29.78,North,0,2.3,2.3,99,0.00,CLR,,0.00,WeatherDisplay:10.37,2013-02-22 08:46:00,
2013-02-22 02:51:00,52.5,52.2,29.79,NNE,22,3.5,3.5,99,0.00,CLR,,0.00,WeatherDisplay:10.37,2013-02-22 08:51:00,
2013-02-22 02:56:00,52.5,52.2,29.79,North,0,3.5,3.5,99,0.00,CLR,,0.00,WeatherDisplay:10.37,2013-02-22 08:56:00,
2013-02-22 03:01:00,52.3,52.1,29.79,North,0,2.3,2.3,99,0.00,CLR,,0.00,WeatherDisplay:10.37,2013-02-22 09:01:00,
2013-02-22 03:06:00,52.3,52.1,29.80,North,0,2.3,2.3,99,0.00,CLR,,0.00,WeatherDisplay:10.37,2013-02-22 09:06:00,
2013-02-22 03:11:00,52.2,51.9,29.80,NE,45,3.5,3.5,99,0.00,CLR,,0.00,WeatherDisplay:10.37,2013-02-22 09:11:00,
2013-02-22 03:16:00,52.0,51.7,29.79,NE,45,3.5,3.5,99,0.00,CLR,,0.00,WeatherDisplay:10.37,2013-02-22 09:16:00,
2013-02-22 03:21:00,51.8,51.5,29.79,NE,45,3.5,3.5,99,0.00,CLR,,0.00,WeatherDisplay:10.37,2013-02-22 09:21:00,
2013-02-22 03:26:00,51.6,51.3,29.79,North,0,3.5,3.5,99,0.00,CLR,,0.00,WeatherDisplay:10.37,2013-02-22 09:26:00,
2013-02-22 03:31:00,51.4,51.2,29.80,NE,45,2.3,2.3,99,0.00,CLR,,0.00,WeatherDisplay:10.37,2013-02-22 09:31:00,
2013-02-22 03:36:00,51.3,51.0,29.80,North,0,2.3,0.0,99,0.00,CLR,,0.00,WeatherDisplay:10.37,2013-02-22 09:36:00,
2013-02-22 03:41:00,51.3,51.0,29.81,North,0,2.3,2.3,99,0.00,CLR,,0.00,WeatherDisplay:10.37,2013-02-22 09:41:00,
2013-02-22 03:46:00,51.1,50.8,29.80,North,0,1.1,1.1,99,0.00,CLR,,0.00,WeatherDisplay:10.37,2013-02-22 09:46:00,
2013-02-22 03:51:00,51.1,50.8,29.80,North,0,2.3,2.3,99,0.00,CLR,,0.00,WeatherDisplay:10.37,2013-02-22 09:51:00,
2013-02-22 03:56:00,50.9,50.6,29.80,North,0,2.3,2.3,99,0.00,CLR,,0.00,WeatherDisplay:10.37,2013-02-22 09:56:00,
2013-02-22 04:01:00,50.7,50.4,29.81,NW,315,2.3,2.3,99,0.00,CLR,,0.00,WeatherDisplay:10.37,2013-02-22 10:01:00,
2013-02-22 04:06:00,50.7,50.4,29.82,NW,315,2.3,2.3,99,0.00,CLR,,0.00,WeatherDisplay:10.37,2013-02-22 10:06:00,
2013-02-22 04:11:00,50.5,50.3,29.81,NW,315,2.3,2.3,99,0.00,CLR,,0.00,WeatherDisplay:10.37,2013-02-22 10:11:00,
2013-02-22 04:16:00,50.5,50.3,29.81,NW,315,1.1,0.0,99,0.00,CLR,,0.00,WeatherDisplay:10.37,2013-02-22 10:16:00,
2013-02-22 04:21:00,50.5,50.3,29.81,SE,135,1.1,0.0,99,0.00,CLR,,0.00,WeatherDisplay:10.37,2013-02-22 10:21:00,
2013-02-22 04:27:00,50.4,50.1,29.83,North,0,1.1,1.1,99,0.00,CLR,,0.00,WeatherDisplay:10.37,2013-02-22 10:27:00,
2013-02-22 04:32:00,50.2,49.9,29.83,North,0,1.1,0.0,99,0.00,CLR,,0.00,WeatherDisplay:10.37,2013-02-22 10:32:00,
2013-02-22 04:37:00,50.2,49.9,29.83,North,0,1.1,0.0,99,0.00,CLR,,0.00,WeatherDisplay:10.37,2013-02-22 10:37:00,
2013-02-22 04:42:00,50.0,49.7,29.83,North,0,2.3,0.0,99,0.00,CLR,,0.00,WeatherDisplay:10.37,2013-02-22 10:42:00,
2013-02-22 04:47:00,50.0,49.7,29.83,NW,315,0.0,0.0,99,0.00,CLR,,0.00,WeatherDisplay:10.37,2013-02-22 10:47:00,
2013-02-22 04:52:00,50.0,49.7,29.83,NW,315,1.1,0.0,99,0.00,CLR,,0.00,WeatherDisplay:10.37,2013-02-22 10:52:00,
2013-02-22 04:57:00,50.0,49.7,29.84,East,90,1.1,0.0,99,0.00,CLR,,0.00,WeatherDisplay:10.37,2013-02-22 10:57:00,
2013-02-22 05:02:00,49.8,49.6,29.83,North,0,1.1,1.1,99,0.00,CLR,,0.00,WeatherDisplay:10.37,2013-02-22 11:02:00,
2013-02-22 05:07:00,49.8,49.6,29.83,North,0,1.1,1.1,99,0.00,CLR,,0.00,WeatherDisplay:10.37,2013-02-22 11:07:00,
2013-02-22 05:12:00,49.8,49.6,29.84,NE,45,0.0,0.0,99,0.00,CLR,,0.00,WeatherDisplay:10.37,2013-02-22 11:12:00,
2013-02-22 05:17:00,49.6,49.4,29.84,NW,315,1.1,0.0,99,0.00,CLR,,0.00,WeatherDisplay:10.37,2013-02-22 11:17:00,
2013-02-22 05:22:00,49.8,49.6,29.84,North,0,1.1,1.1,99,0.00,CLR,,0.00,WeatherDisplay:10.37,2013-02-22 11:22:00,
2013-02-22 05:27:00,49.6,49.4,29.84,North,0,2.3,2.3,99,0.00,CLR,,0.00,WeatherDisplay:10.37,2013-02-22 11:27:00,
2013-02-22 05:32:00,49.6,49.4,29.84,North,0,1.1,1.1,99,0.00,CLR,,0.00,WeatherDisplay:10.37,2013-02-22 11:32:00,
2013-02-22 05:37:00,49.8,49.6,29.84,NW,315,1.1,0.0,99,0.00,CLR,,0.00,WeatherDisplay:10.37,2013-02-22 11:37:00,
2013-02-22 05:42:00,49.8,49.6,29.85,North,0,1.1,0.0,99,0.00,CLR,,0.00,WeatherDisplay:10.37,2013-02-22 11:42:00,
2013-02-22 05:47:00,49.8,49.6,29.84,North,0,1.1,0.0,99,0.00,CLR,,0.00,WeatherDisplay:10.37,2013-02-22 11:47:00,
2013-02-22 05:52:00,49.8,49.6,29.85,North,0,1.6,0.0,99,0.00,CLR,,0.00,WeatherDisplay:10.37,2013-02-22 11:52:00,
2013-02-22 05:57:00,50.0,49.7,29.84,North,0,2.3,0.0,99,0.00,CLR,,0.00,WeatherDisplay:10.37,2013-02-22 11:57:00,
2013-02-22 06:02:00,50.0,49.7,29.84,North,0,2.3,0.0,99,0.00,CLR,,0.00,WeatherDisplay:10.37,2013-02-22 12:02:00,
2013-02-22 06:07:00,50.0,49.7,29.85,North,0,1.1,0.0,99,0.00,CLR,,0.00,WeatherDisplay:10.37,2013-02-22 12:07:00,
2013-02-22 06:12:00,50.4,50.1,29.85,SW,225,1.1,0.0,99,0.00,CLR,,0.00,WeatherDisplay:10.37,2013-02-22 12:12:00,
2013-02-22 06:17:00,50.4,50.1,29.85,SW,225,0.0,0.0,99,0.00,CLR,,0.00,WeatherDisplay:10.37,2013-02-22 12:17:00,
2013-02-22 06:22:00,50.7,50.4,29.85,SW,225,0.0,0.0,99,0.00,CLR,,0.00,WeatherDisplay:10.37,2013-02-22 12:22:00,
2013-02-22 06:27:00,50.7,50.4,29.86,SW,225,0.0,0.0,99,0.00,CLR,,0.00,WeatherDisplay:10.37,2013-02-22 12:27:00,
2013-02-22 06:32:00,50.9,50.6,29.85,SW,225,0.0,0.0,99,0.00,CLR,,0.00,WeatherDisplay:10.37,2013-02-22 12:32:00,
2013-02-22 06:37:00,50.9,50.6,29.86,West,270,1.1,0.0,99,0.00,CLR,,0.00,WeatherDisplay:10.37,2013-02-22 12:37:00,
2013-02-22 06:42:00,50.9,50.6,29.86,South,180,0.0,0.0,99,0.00,CLR,,0.00,WeatherDisplay:10.37,2013-02-22 12:42:00,
2013-02-22 06:47:00,50.9,50.6,29.86,South,180,0.0,0.0,99,0.00,CLR,,0.00,WeatherDisplay:10.37,2013-02-22 12:47:00,
2013-02-22 06:52:00,50.9,50.6,29.86,SW,225,1.1,1.1,99,0.00,CLR,,0.00,WeatherDisplay:10.37,2013-02-22 12:52:00,
2013-02-22 06:57:00,51.1,50.8,29.87,NW,315,0.0,0.0,99,0.00,CLR,,0.00,WeatherDisplay:10.37,2013-02-22 12:57:00,
2013-02-22 07:02:00,51.1,50.8,29.87,South,180,0.0,0.0,99,0.00,CLR,,0.00,WeatherDisplay:10.37,2013-02-22 13:02:00,
2013-02-22 07:07:00,51.3,51.0,29.86,West,270,2.3,2.3,99,0.00,CLR,,0.00,WeatherDisplay:10.37,2013-02-22 13:07:00,
2013-02-22 07:12:00,51.3,51.0,29.87,West,270,0.7,0.0,99,0.00,CLR,,0.00,WeatherDisplay:10.37,2013-02-22 13:12:00,
2013-02-22 07:17:00,51.3,51.0,29.88,NW,315,1.1,0.0,99,0.00,CLR,,0.00,WeatherDisplay:10.37,2013-02-22 13:17:00,
2013-02-22 07:22:00,51.3,51.0,29.88,West,270,1.1,0.0,99,0.00,CLR,,0.00,WeatherDisplay:10.37,2013-02-22 13:22:00,
2013-02-22 07:27:00,51.4,51.2,29.88,West,270,0.0,0.0,99,0.00,CLR,,0.00,WeatherDisplay:10.37,2013-02-22 13:27:00,
2013-02-22 07:32:00,51.6,51.3,29.89,West,270,1.1,1.1,99,0.00,CLR,,0.00,WeatherDisplay:10.37,2013-02-22 13:32:00,
2013-02-22 07:37:00,51.8,51.5,29.89,North,0,1.1,0.0,99,0.00,CLR,,0.00,WeatherDisplay:10.37,2013-02-22 13:37:00,
2013-02-22 07:42:00,51.8,51.5,29.89,West,270,1.1,1.1,99,0.00,CLR,,0.01,WeatherDisplay:10.37,2013-02-22 13:42:00,
2013-02-22 07:47:00,52.0,51.7,29.91,SW,225,1.1,0.0,99,0.01,RA,,0.01,WeatherDisplay:10.37,2013-02-22 13:47:00,
2013-02-22 07:52:00,52.3,52.1,29.91,North,0,1.1,0.0,99,0.01,RA,,0.01,WeatherDisplay:10.37,2013-02-22 13:52:00,
2013-02-22 07:57:00,52.2,51.9,29.90,West,270,1.1,0.0,99,0.01,CLR,,0.01,WeatherDisplay:10.37,2013-02-22 13:57:00,
2013-02-22 08:02:00,52.3,52.1,29.90,West,270,2.3,0.0,99,0.01,CLR,,0.01,WeatherDisplay:10.37,2013-02-22 14:02:00,
2013-02-22 08:07:00,52.5,52.2,29.90,North,0,2.3,0.0,99,0.01,CLR,,0.01,WeatherDisplay:10.37,2013-02-22 14:07:00,
2013-02-22 08:12:00,52.5,52.2,29.90,NW,315,2.3,2.3,99,0.01,CLR,,0.01,WeatherDisplay:10.37,2013-02-22 14:12:00,
2013-02-22 08:17:00,52.7,52.4,29.90,NW,315,2.3,2.3,99,0.01,CLR,,0.01,WeatherDisplay:10.37,2013-02-22 14:17:00,
2013-02-22 08:22:00,52.9,52.6,29.90,North,0,1.1,0.0,99,0.01,CLR,,0.01,WeatherDisplay:10.37,2013-02-22 14:22:00,
2013-02-22 08:27:00,52.9,52.6,29.90,WNW,292,1.1,1.1,99,0.01,CLR,,0.01,WeatherDisplay:10.37,2013-02-22 14:27:00,
2013-02-22 08:32:00,52.9,52.6,29.90,NW,315,3.5,3.5,99,0.01,CLR,,0.01,WeatherDisplay:10.37,2013-02-22 14:32:00,
2013-02-22 08:37:00,53.1,52.8,29.91,NE,45,2.3,2.3,99,0.01,CLR,,0.01,WeatherDisplay:10.37,2013-02-22 14:37:00,
2013-02-22 08:42:00,53.2,53.0,29.90,North,0,3.5,3.5,99,0.01,CLR,,0.01,WeatherDisplay:10.37,2013-02-22 14:42:00,
2013-02-22 08:47:00,53.4,53.1,29.91,NE,45,2.3,0.0,99,0.00,CLR,,0.01,WeatherDisplay:10.37,2013-02-22 14:47:00,
2013-02-22 08:52:00,53.6,53.3,29.91,NE,45,3.5,3.5,99,0.00,CLR,,0.01,WeatherDisplay:10.37,2013-02-22 14:52:00,
2013-02-22 08:57:00,53.6,53.3,29.91,NE,45,3.5,3.5,99,0.00,CLR,,0.01,WeatherDisplay:10.37,2013-02-22 14:57:00,
2013-02-22 09:02:00,53.6,53.3,29.91,SE,135,1.1,0.0,99,0.00,CLR,,0.01,WeatherDisplay:10.37,2013-02-22 15:02:00,
2013-02-22 09:07:00,54.0,53.7,29.91,North,0,1.1,0.0,99,0.00,CLR,,0.01,WeatherDisplay:10.37,2013-02-22 15:07:00,
2013-02-22 09:12:00,54.1,53.9,29.91,NNE,22,3.5,3.5,99,0.00,CLR,,0.01,WeatherDisplay:10.37,2013-02-22 15:12:00,
2013-02-22 09:17:00,54.3,54.0,29.91,East,90,3.5,0.0,99,0.00,CLR,,0.01,WeatherDisplay:10.37,2013-02-22 15:17:00,
2013-02-22 09:22:00,54.7,54.4,29.91,North,0,3.5,3.5,99,0.00,CLR,,0.01,WeatherDisplay:10.37,2013-02-22 15:22:00,
2013-02-22 09:28:00,54.9,54.6,29.91,NW,315,1.1,0.0,99,0.00,CLR,,0.01,WeatherDisplay:10.37,2013-02-22 15:28:00,
2013-02-22 09:37:00,55.4,54.3,29.90,North,0,2.3,2.3,96,0.00,CLR,,0.01,WeatherDisplay:10.37,2013-02-22 15:37:00,
2013-02-22 09:42:00,55.9,55.1,29.90,NE,45,2.3,0.0,97,0.00,CLR,,0.01,WeatherDisplay:10.37,2013-02-22 15:42:00,
2013-02-22 09:47:00,56.5,54.5,29.91,NW,315,3.5,3.5,93,0.00,CLR,,0.01,WeatherDisplay:10.37,2013-02-22 15:47:00,
2013-02-22 09:52:00,57.0,53.8,29.90,East,90,5.8,5.8,89,0.00,CLR,,0.01,WeatherDisplay:10.37,2013-02-22 15:52:00,
2013-02-22 09:58:00,57.6,53.1,29.91,WSW,248,4.6,4.6,85,0.00,CLR,,0.01,WeatherDisplay:10.37,2013-02-22 15:58:00,
2013-02-22 10:10:00,57.8,52.7,29.90,NNW,337,2.0,4.0,83,0.00,CLR,,0.01,WeatherDisplay:10.37,2013-02-22 16:10:00,
2013-02-22 10:15:00,57.8,53.0,29.90,NNE,12,2.0,6.0,84,0.00,CLR,,0.01,WeatherDisplay:10.37,2013-02-22 16:15:00,
2013-02-22 10:20:00,58.6,52.5,29.89,North,0,4.6,4.6,80,0.00,CLR,,0.01,WeatherDisplay:10.37,2013-02-22 16:20:00,
2013-02-22 10:25:00,59.3,53.4,29.88,NNE,16,3.0,6.0,81,0.00,CLR,,0.01,WeatherDisplay:10.37,2013-02-22 16:25:00,
2013-02-22 10:30:00,60.3,54.1,29.89,NE,45,3.5,3.5,80,0.00,CLR,,0.01,WeatherDisplay:10.37,2013-02-22 16:30:00,
2013-02-22 10:35:00,61.0,52.6,29.89,NNE,22,4.6,4.6,74,0.00,CLR,,0.01,WeatherDisplay:10.37,2013-02-22 16:35:00,
2013-02-22 10:40:00,61.9,53.5,29.89,North,0,3.5,3.5,74,0.00,CLR,,0.01,WeatherDisplay:10.37,2013-02-22 16:40:00,
2013-02-22 10:45:00,62.2,52.7,29.89,NE,45,5.8,5.8,71,0.00,CLR,,0.01,WeatherDisplay:10.37,2013-02-22 16:45:00,
2013-02-22 10:54:00,63.0,53.4,29.89,NE,45,4.6,4.6,71,0.00,CLR,,0.01,WeatherDisplay:10.37,2013-02-22 16:54:00,
2013-02-22 10:59:00,62.6,51.9,29.89,NW,315,3.5,3.5,68,0.00,CLR,,0.01,WeatherDisplay:10.37,2013-02-22 16:59:00,
2013-02-22 11:04:00,62.6,51.5,29.89,NW,315,3.5,3.5,67,0.00,CLR,,0.01,WeatherDisplay:10.37,2013-02-22 17:04:00,
2013-02-22 11:09:00,63.3,53.0,29.89,NE,45,3.5,3.5,69,0.00,CLR,,0.01,WeatherDisplay:10.37,2013-02-22 17:09:00,
2013-02-22 11:14:00,64.0,52.4,29.89,NE,45,3.5,3.5,66,0.00,CLR,,0.01,WeatherDisplay:10.37,2013-02-22 17:14:00,
2013-02-22 11:19:00,64.8,53.1,29.89,West,270,3.5,3.5,66,0.00,CLR,,0.01,WeatherDisplay:10.37,2013-02-22 17:19:00,
2013-02-22 11:24:00,65.5,52.1,29.89,North,0,8.1,8.1,62,0.00,CLR,,0.01,WeatherDisplay:10.37,2013-02-22 17:24:00,
2013-02-22 11:29:00,65.8,52.5,29.88,North,0,5.8,5.8,62,0.00,CLR,,0.01,WeatherDisplay:10.37,2013-02-22 17:29:00,
2013-02-22 11:34:00,66.9,53.9,29.89,North,0,3.5,3.5,63,0.00,CLR,,0.01,WeatherDisplay:10.37,2013-02-22 17:34:00,
2013-02-22 11:39:00,66.9,53.0,29.88,NW,315,3.5,3.5,61,0.00,CLR,,0.01,WeatherDisplay:10.37,2013-02-22 17:39:00,
2013-02-22 11:44:00,66.2,51.9,29.88,NW,315,4.6,4.6,60,0.00,CLR,,0.01,WeatherDisplay:10.37,2013-02-22 17:44:00,
2013-02-22 11:49:00,65.3,51.9,29.89,West,270,5.8,5.8,62,0.00,CLR,,0.01,WeatherDisplay:10.37,2013-02-22 17:49:00,
2013-02-22 11:54:00,64.9,52.0,29.89,NE,45,3.5,3.5,63,0.00,CLR,,0.01,WeatherDisplay:10.37,2013-02-22 17:54:00,
2013-02-22 11:59:00,64.8,51.9,29.88,North,0,3.5,3.5,63,0.00,CLR,,0.01,WeatherDisplay:10.37,2013-02-22 17:59:00,
2013-02-22 12:04:00,64.8,51.9,29.88,North,0,4.6,4.6,63,0.00,CLR,,0.01,WeatherDisplay:10.37,2013-02-22 18:04:00,
2013-02-22 12:09:00,66.9,52.1,29.88,NE,45,3.5,3.5,59,0.00,CLR,,0.01,WeatherDisplay:10.37,2013-02-22 18:09:00,
2013-02-22 12:14:00,67.3,52.9,29.89,NE,45,4.6,4.6,60,0.00,CLR,,0.01,WeatherDisplay:10.37,2013-02-22 18:14:00,
2013-02-22 12:22:00,66.2,51.4,29.88,SW,225,3.5,3.5,59,0.00,CLR,,0.01,WeatherDisplay:10.37,2013-02-22 18:22:00,
2013-02-22 12:27:00,65.3,51.9,29.88,NE,45,2.3,0.0,62,0.00,CLR,,0.01,WeatherDisplay:10.37,2013-02-22 18:27:00,
2013-02-22 12:32:00,64.8,51.9,29.88,NE,45,3.5,3.5,63,0.00,CLR,,0.01,WeatherDisplay:10.37,2013-02-22 18:32:00,
2013-02-22 12:37:00,64.6,52.1,29.88,East,90,1.1,0.0,64,0.00,CLR,,0.01,WeatherDisplay:10.37,2013-02-22 18:37:00,
2013-02-22 12:42:00,64.6,52.5,29.87,North,0,2.3,2.3,65,0.00,CLR,,0.01,WeatherDisplay:10.37,2013-02-22 18:42:00,
2013-02-22 12:47:00,64.8,51.9,29.87,North,0,3.5,3.5,63,0.00,CLR,,0.01,WeatherDisplay:10.37,2013-02-22 18:47:00,
2013-02-22 13:01:00,63.7,51.7,29.87,North,0,3.5,3.5,65,0.00,CLR,,0.01,WeatherDisplay:10.37,2013-02-22 19:01:00,
2013-02-22 13:06:00,63.7,51.7,29.87,North,0,3.5,3.5,65,0.00,CLR,,0.01,WeatherDisplay:10.37,2013-02-22 19:06:00,
2013-02-22 13:11:00,63.0,51.4,29.86,East,90,3.5,3.5,66,0.00,CLR,,0.01,WeatherDisplay:10.37,2013-02-22 19:11:00,
2013-02-22 13:16:00,62.8,51.2,29.85,North,0,4.6,4.6,66,0.00,CLR,,0.01,WeatherDisplay:10.37,2013-02-22 19:16:00,
2013-02-22 13:21:00,63.0,51.4,29.85,North,0,3.5,3.5,66,0.00,CLR,,0.01,WeatherDisplay:10.37,2013-02-22 19:21:00,
2013-02-22 13:26:00,63.1,52.0,29.85,NW,315,3.5,3.5,67,0.00,CLR,,0.01,WeatherDisplay:10.37,2013-02-22 19:26:00,
2013-02-22 13:31:00,63.1,52.0,29.85,West,270,2.3,0.0,67,0.00,CLR,,0.01,WeatherDisplay:10.37,2013-02-22 19:31:00,
2013-02-22 13:36:00,63.3,51.8,29.86,West,270,3.5,3.5,66,0.00,CLR,,0.01,WeatherDisplay:10.37,2013-02-22 19:36:00,
2013-02-22 13:41:00,63.0,51.4,29.85,NE,45,3.5,3.5,66,0.00,CLR,,0.01,WeatherDisplay:10.37,2013-02-22 19:41:00,
2013-02-22 13:46:00,62.6,51.5,29.85,North,0,2.3,2.3,67,0.00,CLR,,0.01,WeatherDisplay:10.37,2013-02-22 19:46:00,
2013-02-22 13:51:00,62.4,51.3,29.84,NNE,22,4.6,4.6,67,0.00,CLR,,0.01,WeatherDisplay:10.37,2013-02-22 19:51:00,
2013-02-22 13:56:00,62.2,51.1,29.85,North,0,1.1,0.0,67,0.00,CLR,,0.01,WeatherDisplay:10.37,2013-02-22 19:56:00,
2013-02-22 14:01:00,62.1,51.0,29.85,North,0,8.1,8.1,67,0.00,CLR,,0.01,WeatherDisplay:10.37,2013-02-22 20:01:00,
2013-02-22 14:06:00,62.1,51.0,29.85,North,0,8.1,8.1,67,0.00,CLR,,0.01,WeatherDisplay:10.37,2013-02-22 20:06:00,
2013-02-22 14:11:00,61.5,50.9,29.85,NW,315,2.3,0.0,68,0.00,CLR,,0.01,WeatherDisplay:10.37,2013-02-22 20:11:00,
2013-02-22 14:16:00,61.2,51.3,29.85,NW,315,3.5,3.5,70,0.00,CLR,,0.01,WeatherDisplay:10.37,2013-02-22 20:16:00,
2013-02-22 14:21:00,61.2,51.3,29.85,North,0,3.1,3.1,70,0.00,CLR,,0.01,WeatherDisplay:10.37,2013-02-22 20:21:00,
2013-02-22 14:27:00,61.0,51.1,29.85,North,0,3.5,3.5,70,0.00,CLR,,0.01,WeatherDisplay:10.37,2013-02-22 20:27:00,
2013-02-22 14:32:00,61.2,51.7,29.84,East,90,3.5,3.5,71,0.00,CLR,,0.01,WeatherDisplay:10.37,2013-02-22 20:32:00,
2013-02-22 14:37:00,61.3,51.5,29.84,NE,45,3.8,3.8,70,0.00,CLR,,0.01,WeatherDisplay:10.37,2013-02-22 20:37:00,
2013-02-22 14:42:00,61.3,51.1,29.85,West,270,2.3,2.3,69,0.00,CLR,,0.01,WeatherDisplay:10.37,2013-02-22 20:42:00,
2013-02-22 14:47:00,61.2,50.1,29.85,West,270,4.6,4.6,67,0.00,CLR,,0.01,WeatherDisplay:10.37,2013-02-22 20:47:00,
2013-02-22 14:52:00,61.2,50.9,29.85,North,0,2.3,2.3,69,0.00,CLR,,0.01,WeatherDisplay:10.37,2013-02-22 20:52:00,
2013-02-22 14:57:00,61.2,50.9,29.84,NE,45,3.5,3.5,69,0.00,CLR,,0.01,WeatherDisplay:10.37,2013-02-22 20:57:00,
2013-02-22 15:02:00,61.3,51.5,29.84,East,90,3.5,3.5,70,0.00,CLR,,0.01,WeatherDisplay:10.37,2013-02-22 21:02:00,
2013-02-22 15:07:00,61.3,51.5,29.85,East,90,3.5,3.5,70,0.00,CLR,,0.01,WeatherDisplay:10.37,2013-02-22 21:07:00,
2013-02-22 15:12:00,61.3,50.7,29.85,West,270,3.5,3.5,68,0.00,CLR,,0.01,WeatherDisplay:10.37,2013-02-22 21:12:00,
2013-02-22 15:17:00,61.2,50.5,29.84,NE,45,2.3,0.0,68,0.00,CLR,,0.01,WeatherDisplay:10.37,2013-02-22 21:17:00,
2013-02-22 15:22:00,60.8,49.8,29.83,NE,45,3.5,3.5,67,0.00,CLR,,0.01,WeatherDisplay:10.37,2013-02-22 21:22:00,
2013-02-22 15:27:00,60.8,50.2,29.83,NE,45,5.8,5.8,68,0.00,CLR,,0.01,WeatherDisplay:10.37,2013-02-22 21:27:00,
2013-02-22 15:32:00,61.0,50.3,29.83,North,0,3.5,3.5,68,0.00,CLR,,0.01,WeatherDisplay:10.37,2013-02-22 21:32:00,
2013-02-22 15:37:00,61.2,50.5,29.83,NE,45,2.3,2.3,68,0.00,CLR,,0.01,WeatherDisplay:10.37,2013-02-22 21:37:00,
2013-02-22 15:42:00,61.2,50.1,29.84,East,90,3.5,0.0,67,0.00,CLR,,0.01,WeatherDisplay:10.37,2013-02-22 21:42:00,
2013-02-22 15:47:00,60.8,50.2,29.85,West,270,1.1,0.0,68,0.00,CLR,,0.01,WeatherDisplay:10.37,2013-02-22 21:47:00,
2013-02-22 15:52:00,60.4,49.8,29.86,NW,315,5.8,5.8,68,0.00,CLR,,0.01,WeatherDisplay:10.37,2013-02-22 21:52:00,
2013-02-22 15:57:00,60.3,50.0,29.85,NE,45,2.3,2.3,69,0.00,CLR,,0.01,WeatherDisplay:10.37,2013-02-22 21:57:00,
2013-02-22 16:02:00,60.1,49.1,29.85,NE,45,3.5,3.5,67,0.00,CLR,,0.01,WeatherDisplay:10.37,2013-02-22 22:02:00,
2013-02-22 16:07:00,60.1,49.1,29.85,NE,45,3.5,3.5,67,0.00,CLR,,0.01,WeatherDisplay:10.37,2013-02-22 22:07:00,
2013-02-22 16:12:00,59.5,50.5,29.85,North,0,4.6,4.6,72,0.00,CLR,,0.01,WeatherDisplay:10.37,2013-02-22 22:12:00,
2013-02-22 16:17:00,59.4,50.7,29.84,NW,315,3.5,3.5,73,0.00,CLR,,0.01,WeatherDisplay:10.37,2013-02-22 22:17:00,
2013-02-22 16:22:00,59.4,51.1,29.84,North,0,2.3,2.3,74,0.00,CLR,,0.01,WeatherDisplay:10.37,2013-02-22 22:22:00,
2013-02-22 16:27:00,59.2,51.3,29.85,NNE,22,4.6,4.6,75,0.00,CLR,,0.01,WeatherDisplay:10.37,2013-02-22 22:27:00,
2013-02-22 16:32:00,58.8,50.5,29.84,West,270,4.6,4.6,74,0.00,CLR,,0.01,WeatherDisplay:10.37,2013-02-22 22:32:00,
2013-02-22 16:37:00,58.6,50.7,29.83,North,0,3.5,0.0,75,0.00,CLR,,0.01,WeatherDisplay:10.37,2013-02-22 22:37:00,
2013-02-22 16:42:00,58.6,50.7,29.84,North,0,2.3,2.3,75,0.00,CLR,,0.01,WeatherDisplay:10.37,2013-02-22 22:42:00,
2013-02-22 16:47:00,58.3,50.7,29.84,NW,315,2.3,2.3,76,0.00,CLR,,0.01,WeatherDisplay:10.37,2013-02-22 22:47:00,
2013-02-22 16:52:00,57.9,50.0,29.86,NE,45,3.5,0.0,75,0.00,CLR,,0.01,WeatherDisplay:10.37,2013-02-22 22:52:00,
2013-02-22 16:57:00,57.9,50.8,29.85,North,0,2.3,2.3,77,0.00,CLR,,0.01,WeatherDisplay:10.37,2013-02-22 22:57:00,
2013-02-22 17:02:00,57.6,51.1,29.85,West,270,1.6,1.6,79,0.00,CLR,,0.01,WeatherDisplay:10.37,2013-02-22 23:02:00,
2013-02-22 17:07:00,56.5,51.1,29.86,North,0,1.1,0.0,82,0.00,CLR,,0.02,WeatherDisplay:10.37,2013-02-22 23:07:00,
2013-02-22 17:12:00,55.9,51.5,29.85,NW,315,3.5,3.5,85,0.02,RA,,0.04,WeatherDisplay:10.37,2013-02-22 23:12:00,
2013-02-22 17:17:00,55.4,51.3,29.85,South,180,2.3,2.3,86,0.04,RA,,0.05,WeatherDisplay:10.37,2013-02-22 23:17:00,
2013-02-22 17:22:00,54.9,51.4,29.86,NW,315,1.1,1.1,88,0.04,RA,,0.05,WeatherDisplay:10.37,2013-02-22 23:22:00,
2013-02-22 17:27:00,54.5,51.6,29.86,NW,315,3.5,3.5,90,0.04,,,0.05,WeatherDisplay:10.37,2013-02-22 23:27:00,
2013-02-22 17:33:00,54.3,51.7,29.86,North,0,2.3,0.0,91,0.04,CLR,,0.05,WeatherDisplay:10.37,2013-02-22 23:33:00,
2013-02-22 17:38:00,54.1,51.6,29.86,NW,315,1.1,0.0,91,0.04,CLR,,0.05,WeatherDisplay:10.37,2013-02-22 23:38:00,
2013-02-22 17:43:00,54.0,51.7,29.85,NW,315,3.5,0.0,92,0.04,CLR,,0.05,WeatherDisplay:10.37,2013-02-22 23:43:00,
2013-02-22 17:48:00,54.0,51.7,29.85,West,270,1.1,0.0,92,0.04,CLR,,0.05,WeatherDisplay:10.37,2013-02-22 23:48:00,
2013-02-22 17:53:00,53.8,51.8,29.85,South,180,3.5,3.5,93,0.04,CLR,,0.05,WeatherDisplay:10.37,2013-02-22 23:53:00,
2013-02-22 17:58:00,53.6,51.6,29.85,North,0,1.1,1.1,93,0.04,CLR,,0.05,WeatherDisplay:10.37,2013-02-22 23:58:00,
2013-02-22 18:03:00,53.6,51.6,29.85,North,0,3.5,3.5,93,0.04,CLR,,0.05,WeatherDisplay:10.37,2013-02-23 00:03:00,
2013-02-22 18:08:00,53.2,51.6,29.85,NNE,22,3.5,3.5,94,0.02,CLR,,0.05,WeatherDisplay:10.37,2013-02-23 00:08:00,
2013-02-22 18:13:00,53.2,51.3,29.85,North,0,3.5,3.5,93,0.01,CLR,,0.05,WeatherDisplay:10.37,2013-02-23 00:13:00,
2013-02-22 18:18:00,53.1,51.4,29.85,North,0,3.5,3.5,94,0.00,CLR,,0.05,WeatherDisplay:10.37,2013-02-23 00:18:00,
2013-02-22 18:23:00,53.1,51.4,29.85,West,270,2.3,2.3,94,0.00,CLR,,0.05,WeatherDisplay:10.37,2013-02-23 00:23:00,
2013-02-22 18:28:00,53.1,51.7,29.86,South,180,3.5,3.5,95,0.00,CLR,,0.05,WeatherDisplay:10.37,2013-02-23 00:28:00,
2013-02-22 18:33:00,52.7,51.0,29.86,North,0,2.3,0.0,94,0.00,CLR,,0.05,WeatherDisplay:10.37,2013-02-23 00:33:00,
2013-02-22 18:38:00,52.7,51.3,29.86,NE,45,1.1,1.1,95,0.00,CLR,,0.05,WeatherDisplay:10.37,2013-02-23 00:38:00,
2013-02-22 18:43:00,52.7,51.3,29.85,NE,45,3.5,0.0,95,0.00,CLR,,0.05,WeatherDisplay:10.37,2013-02-23 00:43:00,
2013-02-22 18:48:00,52.7,51.3,29.86,West,270,1.1,0.0,95,0.00,CLR,,0.05,WeatherDisplay:10.37,2013-02-23 00:48:00,
2013-02-22 18:53:00,52.5,51.1,29.86,North,0,2.3,2.3,95,0.00,CLR,,0.05,WeatherDisplay:10.37,2013-02-23 00:53:00,
2013-02-22 18:58:00,52.5,51.1,29.86,West,270,3.5,3.5,95,0.00,CLR,,0.05,WeatherDisplay:10.37,2013-02-23 00:58:00,
2013-02-22 19:03:00,52.5,51.1,29.86,NW,315,1.6,1.6,95,0.00,CLR,,0.05,WeatherDisplay:10.37,2013-02-23 01:03:00,
2013-02-22 19:08:00,52.5,51.1,29.86,North,0,1.1,0.0,95,0.00,CLR,,0.05,WeatherDisplay:10.37,2013-02-23 01:08:00,
2013-02-22 19:13:00,52.5,51.1,29.86,North,0,1.1,1.1,95,0.00,CLR,,0.05,WeatherDisplay:10.37,2013-02-23 01:13:00,
2013-02-22 19:18:00,52.3,51.2,29.85,North,0,2.3,2.3,96,0.00,CLR,,0.05,WeatherDisplay:10.37,2013-02-23 01:18:00,
2013-02-22 19:23:00,52.3,51.0,29.85,North,0,2.3,2.3,95,0.00,CLR,,0.05,WeatherDisplay:10.37,2013-02-23 01:23:00,
2013-02-22 19:28:00,52.3,51.2,29.85,North,0,2.3,2.3,96,0.00,CLR,,0.05,WeatherDisplay:10.37,2013-02-23 01:28:00,
2013-02-22 19:34:00,52.3,51.2,29.85,North,0,2.3,2.3,96,0.00,CLR,,0.05,WeatherDisplay:10.37,2013-02-23 01:34:00,
2013-02-22 19:39:00,52.3,51.2,29.85,North,0,2.3,2.3,96,0.00,CLR,,0.05,WeatherDisplay:10.37,2013-02-23 01:39:00,
2013-02-22 19:44:00,52.2,51.1,29.85,West,270,2.3,2.3,96,0.00,CLR,,0.05,WeatherDisplay:10.37,2013-02-23 01:44:00,
2013-02-22 19:49:00,52.3,51.2,29.86,West,270,2.3,2.3,96,0.00,CLR,,0.05,WeatherDisplay:10.37,2013-02-23 01:49:00,
2013-02-22 19:54:00,52.2,51.1,29.86,West,270,3.5,0.0,96,0.00,CLR,,0.05,WeatherDisplay:10.37,2013-02-23 01:54:00,
2013-02-22 19:59:00,52.0,50.9,29.86,West,270,2.3,0.0,96,0.00,CLR,,0.05,WeatherDisplay:10.37,2013-02-23 01:59:00,
2013-02-22 20:04:00,52.2,51.1,29.86,North,0,2.3,2.3,96,0.00,CLR,,0.05,WeatherDisplay:10.37,2013-02-23 02:04:00,
2013-02-22 20:09:00,52.0,50.9,29.86,North,0,3.5,3.5,96,0.00,CLR,,0.05,WeatherDisplay:10.37,2013-02-23 02:09:00,
2013-02-22 20:14:00,51.8,50.7,29.86,NE,45,2.3,2.3,96,0.00,CLR,,0.05,WeatherDisplay:10.37,2013-02-23 02:14:00,
2013-02-22 20:19:00,51.8,50.7,29.86,NE,45,4.6,4.6,96,0.00,CLR,,0.05,WeatherDisplay:10.37,2013-02-23 02:19:00,
2013-02-22 20:24:00,51.8,50.7,29.86,North,0,2.3,0.0,96,0.00,CLR,,0.05,WeatherDisplay:10.37,2013-02-23 02:24:00,
2013-02-22 20:29:00,51.8,50.7,29.86,West,270,4.6,4.6,96,0.00,CLR,,0.05,WeatherDisplay:10.37,2013-02-23 02:29:00,
2013-02-22 20:34:00,51.8,50.7,29.85,NE,45,4.6,4.6,96,0.00,CLR,,0.05,WeatherDisplay:10.37,2013-02-23 02:34:00,
2013-02-22 20:39:00,51.6,50.5,29.86,SW,225,2.3,2.3,96,0.00,CLR,,0.05,WeatherDisplay:10.37,2013-02-23 02:39:00,
2013-02-22 20:44:00,51.8,50.7,29.86,NE,45,3.5,3.5,96,0.00,CLR,,0.05,WeatherDisplay:10.37,2013-02-23 02:44:00,
2013-02-22 20:49:00,51.6,50.5,29.87,North,0,2.3,2.3,96,0.00,CLR,,0.05,WeatherDisplay:10.37,2013-02-23 02:49:00,
2013-02-22 20:54:00,51.6,50.5,29.87,NW,315,1.1,0.0,96,0.00,CLR,,0.05,WeatherDisplay:10.37,2013-02-23 02:54:00,
2013-02-22 20:59:00,51.6,50.5,29.87,South,180,3.5,0.0,96,0.00,CLR,,0.05,WeatherDisplay:10.37,2013-02-23 02:59:00,
2013-02-22 21:04:00,51.6,50.5,29.87,North,0,1.1,1.1,96,0.00,CLR,,0.05,WeatherDisplay:10.37,2013-02-23 03:04:00,
2013-02-22 21:09:00,51.6,50.5,29.88,NE,45,2.3,0.0,96,0.00,CLR,,0.05,WeatherDisplay:10.37,2013-02-23 03:09:00,
2013-02-22 21:14:00,51.6,50.5,29.88,NW,315,1.1,0.0,96,0.00,CLR,,0.05,WeatherDisplay:10.37,2013-02-23 03:14:00,
2013-02-22 21:19:00,51.6,50.2,29.88,NE,45,3.5,3.5,95,0.00,CLR,,0.05,WeatherDisplay:10.37,2013-02-23 03:19:00,
2013-02-22 21:24:00,51.6,50.2,29.88,South,180,2.3,2.3,95,0.00,CLR,,0.05,WeatherDisplay:10.37,2013-02-23 03:24:00,
2013-02-22 21:29:00,51.4,50.1,29.88,South,180,2.3,2.3,95,0.00,CLR,,0.05,WeatherDisplay:10.37,2013-02-23 03:29:00,
2013-02-22 21:34:00,51.4,50.1,29.89,North,0,1.1,0.0,95,0.00,CLR,,0.05,WeatherDisplay:10.37,2013-02-23 03:34:00,
2013-02-22 21:39:00,51.4,50.1,29.88,North,0,2.3,2.3,95,0.00,CLR,,0.05,WeatherDisplay:10.37,2013-02-23 03:39:00,
2013-02-22 21:44:00,51.6,50.2,29.89,North,0,2.3,2.3,95,0.00,CLR,,0.05,WeatherDisplay:10.37,2013-02-23 03:44:00,
2013-02-22 21:49:00,51.6,50.2,29.88,NW,315,3.5,3.5,95,0.00,CLR,,0.05,WeatherDisplay:10.37,2013-02-23 03:49:00,
2013-02-22 21:54:00,51.6,50.2,29.89,North,0,4.6,0.0,95,0.00,CLR,,0.05,WeatherDisplay:10.37,2013-02-23 03:54:00,
2013-02-22 21:59:00,51.6,50.2,29.89,NW,315,1.1,0.0,95,0.00,CLR,,0.05,WeatherDisplay:10.37,2013-02-23 03:59:00,
2013-02-22 22:04:00,51.6,50.2,29.89,NW,315,1.1,0.0,95,0.00,CLR,,0.05,WeatherDisplay:10.37,2013-02-23 04:04:00,
2013-02-22 22:09:00,51.6,50.2,29.90,West,270,3.5,0.0,95,0.00,CLR,,0.05,WeatherDisplay:10.37,2013-02-23 04:09:00,
2013-02-22 22:14:00,51.6,50.2,29.88,NNE,22,4.6,4.6,95,0.00,CLR,,0.05,WeatherDisplay:10.37,2013-02-23 04:14:00,
2013-02-22 22:19:00,51.6,49.9,29.89,SW,225,2.3,2.3,94,0.00,CLR,,0.05,WeatherDisplay:10.37,2013-02-23 04:19:00,
2013-02-22 22:24:00,51.6,49.9,29.89,NW,315,3.5,3.5,94,0.00,CLR,,0.05,WeatherDisplay:10.37,2013-02-23 04:24:00,
2013-02-22 22:29:00,51.6,49.9,29.89,NE,45,4.6,4.6,94,0.00,CLR,,0.05,WeatherDisplay:10.37,2013-02-23 04:29:00,
2013-02-22 22:34:00,51.6,49.9,29.88,West,270,4.6,0.0,94,0.00,CLR,,0.05,WeatherDisplay:10.37,2013-02-23 04:34:00,
2013-02-22 22:39:00,51.4,49.8,29.88,North,0,3.5,3.5,94,0.00,CLR,,0.05,WeatherDisplay:10.37,2013-02-23 04:39:00,
2013-02-22 22:44:00,51.4,49.5,29.89,NW,315,1.1,1.1,93,0.00,CLR,,0.05,WeatherDisplay:10.37,2013-02-23 04:44:00,
2013-02-22 22:49:00,51.4,49.5,29.88,NW,315,2.3,2.3,93,0.00,CLR,,0.05,WeatherDisplay:10.37,2013-02-23 04:49:00,
2013-02-22 22:54:00,51.4,49.5,29.88,NE,45,4.6,4.6,93,0.00,CLR,,0.05,WeatherDisplay:10.37,2013-02-23 04:54:00,
2013-02-22 22:59:00,51.4,49.2,29.88,North,0,3.5,3.5,92,0.00,CLR,,0.05,WeatherDisplay:10.37,2013-02-23 04:59:00,
2013-02-22 23:00:00,51.4,49.2,29.88,North,4,1.0,6.0,92,0.00,CLR,,0.05,WeatherDisplay:10.37,2013-02-23 05:00:00,
2013-02-22 23:05:00,51.4,49.2,29.88,North,0,4.6,4.6,92,0.00,CLR,,0.05,WeatherDisplay:10.37,2013-02-23 05:05:00,
2013-02-22 23:10:00,51.3,49.0,29.88,NE,45,4.6,4.6,92,0.00,CLR,,0.05,WeatherDisplay:10.37,2013-02-23 05:10:00,
2013-02-22 23:15:00,51.4,49.2,29.88,NE,45,3.5,3.5,92,0.00,CLR,,0.05,WeatherDisplay:10.37,2013-02-23 05:15:00,
2013-02-22 23:20:00,51.4,49.2,29.88,North,0,3.5,3.5,92,0.00,CLR,,0.05,WeatherDisplay:10.37,2013-02-23 05:20:00,
2013-02-22 23:25:00,51.4,49.2,29.89,SW,225,3.5,3.5,92,0.00,CLR,,0.05,WeatherDisplay:10.37,2013-02-23 05:25:00,
2013-02-22 23:30:00,51.4,49.2,29.88,North,0,3.5,3.5,92,0.00,CLR,,0.05,WeatherDisplay:10.37,2013-02-23 05:30:00,
2013-02-22 23:35:00,51.4,49.2,29.88,South,180,3.5,3.5,92,0.00,CLR,,0.05,WeatherDisplay:10.37,2013-02-23 05:35:00,
2013-02-22 23:40:00,51.3,49.0,29.89,NW,315,1.1,0.0,92,0.00,CLR,,0.05,WeatherDisplay:10.37,2013-02-23 05:40:00,
2013-02-22 23:45:00,51.3,49.0,29.89,West,270,3.5,3.5,92,0.00,CLR,,0.05,WeatherDisplay:10.37,2013-02-23 05:45:00,
2013-02-22 23:50:00,51.3,49.0,29.88,NNE,22,3.5,3.5,92,0.00,CLR,,0.05,WeatherDisplay:10.37,2013-02-23 05:50:00,
2013-02-22 23:55:00,51.3,49.0,29.89,West,270,3.5,3.5,92,0.00,CLR,,0.05,WeatherDisplay:10.37,2013-02-23 05:55:00,